createdAt,value
2022-12-27T00:01:48.115Z,8.40
2022-12-27T00:04:16.405Z,8.40
2022-12-27T00:06:46.225Z,8.40
2022-12-27T00:09:14.453Z,8.40
2022-12-27T00:11:42.720Z,8.30
2022-12-27T00:14:12.911Z,8.30
2022-12-27T00:16:41.165Z,8.20
2022-12-27T00:19:09.443Z,8.10
2022-12-27T00:21:37.824Z,8.10
2022-12-27T00:24:08.235Z,8.00
2022-12-27T00:26:36.923Z,7.90
2022-12-27T00:29:05.744Z,7.80
2022-12-27T00:31:35.055Z,7.70
2022-12-27T00:34:05.865Z,7.70
2022-12-27T00:36:34.214Z,7.70
2022-12-27T00:39:02.968Z,7.60
2022-12-27T00:41:32.856Z,7.60
2022-12-27T00:44:01.119Z,7.60
2022-12-27T00:46:30.008Z,7.50
2022-12-27T00:48:58.789Z,7.50
2022-12-27T00:51:27.968Z,7.50
2022-12-27T00:53:56.674Z,7.40
2022-12-27T00:56:27.261Z,7.40
2022-12-27T00:58:58.110Z,7.30
2022-12-27T01:01:28.068Z,7.30
2022-12-27T01:03:57.256Z,7.30
2022-12-27T01:06:29.589Z,7.30
2022-12-27T01:08:58.149Z,7.30
2022-12-27T01:11:28.501Z,7.30
2022-12-27T01:13:59.068Z,7.20
2022-12-27T01:16:29.030Z,7.20
2022-12-27T01:18:57.702Z,7.20
2022-12-27T01:21:27.367Z,7.20
2022-12-27T01:23:56.225Z,7.10
2022-12-27T01:26:25.395Z,7.10
2022-12-27T01:28:55.035Z,7.10
2022-12-27T01:31:27.931Z,7.00
2022-12-27T01:33:58.202Z,7.00
2022-12-27T01:36:27.547Z,7.00
2022-12-27T01:38:56.061Z,6.90
2022-12-27T01:41:44.173Z,6.90
2022-12-27T01:44:50.452Z,6.90
2022-12-27T01:47:28.046Z,6.90
2022-12-27T01:50:04.521Z,6.80
2022-12-27T01:52:37.615Z,6.80
2022-12-27T01:55:11.927Z,6.80
2022-12-27T01:57:40.542Z,6.70
2022-12-27T02:00:10.105Z,6.70
2022-12-27T02:02:40.743Z,6.70
2022-12-27T02:05:11.378Z,6.60
2022-12-27T02:07:48.909Z,6.60
2022-12-27T02:10:18.200Z,6.60
2022-12-27T02:12:46.497Z,6.60
2022-12-27T02:15:14.698Z,6.50
2022-12-27T02:17:44.372Z,6.50
2022-12-27T02:20:15.642Z,6.50
2022-12-27T02:23:26.532Z,6.50
2022-12-27T02:26:27.202Z,6.50
2022-12-27T02:29:16.651Z,6.50
2022-12-27T02:31:53.317Z,6.50
2022-12-27T02:34:26.361Z,6.50
2022-12-27T02:36:59.159Z,6.50
2022-12-27T02:39:28.800Z,6.40
2022-12-27T02:42:16.135Z,6.40
2022-12-27T02:45:12.527Z,6.40
2022-12-27T02:47:58.275Z,6.40
2022-12-27T02:50:54.327Z,6.40
2022-12-27T02:53:34.438Z,6.30
2022-12-27T02:56:30.515Z,6.30
2022-12-27T02:59:11.667Z,6.30
2022-12-27T03:02:07.118Z,6.30
2022-12-27T03:04:57.224Z,6.30
2022-12-27T03:07:33.122Z,6.30
2022-12-27T03:10:36.488Z,6.30
2022-12-27T03:13:38.013Z,6.30
2022-12-27T03:16:19.049Z,6.20
2022-12-27T03:18:58.104Z,6.20
2022-12-27T03:21:48.195Z,6.20
2022-12-27T03:24:37.006Z,6.10
2022-12-27T03:27:11.080Z,6.10
2022-12-27T03:29:57.292Z,6.10
2022-12-27T03:32:43.952Z,6.10
2022-12-27T03:35:17.916Z,6.10
2022-12-27T03:38:05.706Z,6.10
2022-12-27T03:41:07.177Z,6.10
2022-12-27T03:43:36.349Z,6.10
2022-12-27T03:46:36.666Z,6.00
2022-12-27T03:49:15.868Z,6.00
2022-12-27T03:51:51.173Z,6.00
2022-12-27T03:54:26.590Z,6.00
2022-12-27T03:56:57.335Z,6.00
2022-12-27T03:59:25.848Z,6.00
2022-12-27T04:01:54.505Z,6.00
2022-12-27T04:04:22.927Z,6.00
2022-12-27T04:06:52.550Z,6.00
2022-12-27T04:09:37.959Z,6.00
2022-12-27T04:12:24.266Z,5.90
2022-12-27T04:15:09.850Z,5.90
2022-12-27T04:17:55.371Z,5.90
2022-12-27T04:20:41.395Z,5.90
2022-12-27T04:23:28.941Z,5.90
2022-12-27T04:26:14.903Z,5.90
2022-12-27T04:29:00.760Z,5.90
2022-12-27T04:31:46.497Z,5.90
2022-12-27T04:34:32.412Z,5.80
2022-12-27T04:37:00.665Z,5.90
2022-12-27T04:39:30.326Z,5.90
2022-12-27T04:42:16.130Z,5.90
2022-12-27T04:44:58.206Z,5.80
2022-12-27T04:47:58.495Z,5.90
2022-12-27T04:50:46.398Z,5.90
2022-12-27T04:53:34.031Z,5.90
2022-12-27T04:56:04.369Z,5.90
2022-12-27T04:58:32.818Z,5.80
2022-12-27T05:01:20.863Z,5.80
2022-12-27T05:03:51.898Z,5.80
2022-12-27T05:06:20.848Z,5.80
2022-12-27T05:09:07.131Z,5.80
2022-12-27T05:11:54.132Z,5.80
2022-12-27T05:14:22.430Z,5.80
2022-12-27T05:16:50.709Z,5.90
2022-12-27T05:19:18.939Z,5.90
2022-12-27T05:22:01.111Z,5.80
2022-12-27T05:24:46.583Z,5.80
2022-12-27T05:27:17.108Z,5.80
2022-12-27T05:29:46.746Z,5.80
2022-12-27T05:32:15.149Z,5.80
2022-12-27T05:34:43.417Z,5.80
2022-12-27T05:37:11.646Z,5.90
2022-12-27T05:39:39.829Z,5.90
2022-12-27T05:42:08.112Z,5.90
2022-12-27T05:44:37.739Z,5.90
2022-12-27T05:47:06.072Z,5.90
2022-12-27T05:49:34.293Z,6.00
2022-12-27T05:52:02.588Z,6.00
2022-12-27T05:54:30.839Z,6.00
2022-12-27T05:56:59.087Z,6.00
2022-12-27T05:59:27.324Z,6.10
2022-12-27T06:01:57.009Z,6.10
2022-12-27T06:04:25.405Z,6.10
2022-12-27T06:06:53.638Z,6.10
2022-12-27T06:09:21.965Z,6.10
2022-12-27T06:11:50.215Z,6.00
2022-12-27T06:14:18.510Z,6.00
2022-12-27T06:16:46.843Z,6.00
2022-12-27T06:19:17.078Z,5.90
2022-12-27T06:21:45.299Z,5.90
2022-12-27T06:24:13.538Z,5.90
2022-12-27T06:26:42.400Z,5.90
2022-12-27T06:29:12.913Z,5.90
2022-12-27T06:31:41.537Z,5.80
2022-12-27T06:34:12.316Z,5.80
2022-12-27T06:36:41.998Z,5.80
2022-12-27T06:39:10.192Z,5.80
2022-12-27T06:41:38.443Z,5.80
2022-12-27T06:44:06.924Z,5.80
2022-12-27T06:46:35.236Z,5.80
2022-12-27T06:49:03.641Z,5.80
2022-12-27T06:51:31.903Z,5.80
2022-12-27T06:54:01.598Z,5.90
2022-12-27T06:56:29.859Z,5.90
2022-12-27T06:58:58.146Z,5.90
2022-12-27T07:01:28.450Z,6.00
2022-12-27T07:03:58.702Z,6.00
2022-12-27T07:06:28.977Z,6.00
2022-12-27T07:08:58.095Z,6.00
2022-12-27T07:11:27.852Z,6.00
2022-12-27T07:13:57.295Z,6.00
2022-12-27T07:16:27.755Z,5.90
2022-12-27T07:18:57.756Z,5.90
2022-12-27T07:21:28.541Z,5.90
2022-12-27T07:23:57.138Z,6.00
2022-12-27T07:26:30.098Z,6.00
2022-12-27T07:29:00.921Z,6.10
2022-12-27T07:31:31.024Z,6.10
2022-12-27T07:34:00.386Z,6.20
2022-12-27T07:36:33.261Z,6.20
2022-12-27T07:39:01.524Z,6.20
2022-12-27T07:41:31.189Z,6.30
2022-12-27T07:43:59.450Z,6.40
2022-12-27T07:46:28.112Z,6.40
2022-12-27T07:48:57.681Z,6.30
2022-12-27T07:51:27.169Z,6.30
2022-12-27T07:53:55.899Z,6.40
2022-12-27T07:56:26.920Z,6.40
2022-12-27T07:58:57.979Z,6.50
2022-12-27T08:01:28.872Z,6.50
2022-12-27T08:03:57.354Z,6.60
2022-12-27T08:06:28.370Z,6.60
2022-12-27T08:08:58.858Z,6.70
2022-12-27T08:11:27.589Z,6.70
2022-12-27T08:13:57.321Z,6.70
2022-12-27T08:16:27.018Z,6.80
2022-12-27T08:18:56.117Z,6.70
2022-12-27T08:21:24.824Z,6.70
2022-12-27T08:23:53.114Z,6.70
2022-12-27T08:26:21.377Z,6.70
2022-12-27T08:28:49.612Z,6.70
2022-12-27T08:31:21.096Z,6.80
2022-12-27T08:33:52.445Z,6.80
2022-12-27T08:39:13.285Z,6.90
2022-12-27T08:41:41.523Z,6.90
2022-12-27T08:44:10.381Z,7.00
2022-12-27T08:46:40.402Z,7.00
2022-12-27T08:49:08.973Z,7.00
2022-12-27T08:51:41.117Z,7.10
2022-12-27T08:54:10.514Z,7.10
2022-12-27T08:56:39.528Z,7.10
2022-12-27T08:59:07.769Z,7.10
2022-12-27T09:01:36.181Z,7.10
2022-12-27T09:04:06.068Z,7.10
2022-12-27T09:06:34.267Z,7.10
2022-12-27T09:09:02.543Z,7.20
2022-12-27T09:11:33.329Z,7.20
2022-12-27T09:14:03.795Z,7.20
2022-12-27T09:16:34.249Z,7.20
2022-12-27T09:19:07.822Z,7.30
2022-12-27T09:21:40.523Z,7.30
2022-12-27T09:24:11.380Z,7.40
2022-12-27T09:26:39.907Z,7.40
2022-12-27T09:29:08.480Z,7.40
2022-12-27T09:31:36.824Z,7.40
2022-12-27T09:34:05.130Z,7.40
2022-12-27T09:36:33.408Z,7.40
2022-12-27T09:39:03.050Z,7.40
2022-12-27T09:44:39.894Z,7.40
2022-12-27T09:47:13.904Z,7.50
2022-12-27T09:49:46.633Z,7.60
2022-12-27T09:52:18.817Z,7.70
2022-12-27T09:55:02.523Z,7.80
2022-12-27T09:57:37.576Z,7.80
2022-12-27T10:00:13.425Z,7.90
2022-12-27T10:02:44.535Z,8.00
2022-12-27T10:05:21.921Z,8.00
2022-12-27T10:08:02.867Z,8.10
2022-12-27T10:10:42.647Z,8.10
2022-12-27T10:13:21.631Z,8.10
2022-12-27T10:15:56.227Z,8.00
2022-12-27T10:18:35.466Z,8.00
2022-12-27T10:21:14.060Z,8.00
2022-12-27T10:23:45.877Z,8.00
2022-12-27T10:26:18.995Z,8.10
2022-12-27T10:28:53.116Z,8.10
2022-12-27T10:31:26.223Z,8.20
2022-12-27T10:33:55.466Z,8.30
2022-12-27T10:36:26.225Z,8.30
2022-12-27T10:38:55.133Z,8.30
2022-12-27T10:41:34.470Z,8.40
2022-12-27T10:44:02.782Z,8.40
2022-12-27T10:46:34.040Z,8.40
2022-12-27T10:49:21.263Z,8.40
2022-12-27T10:51:52.471Z,8.40
2022-12-27T10:54:24.840Z,8.40
2022-12-27T10:56:55.299Z,8.40
2022-12-27T10:59:25.505Z,8.40
2022-12-27T11:02:17.636Z,8.40
2022-12-27T11:05:00.500Z,8.40
2022-12-27T11:07:33.359Z,8.40
2022-12-27T11:10:09.563Z,8.40
2022-12-27T11:12:39.225Z,8.40
2022-12-27T11:15:19.762Z,8.40
2022-12-27T11:17:50.485Z,8.40
2022-12-27T11:20:23.106Z,8.40
2022-12-27T11:22:55.091Z,8.40
2022-12-27T11:25:23.870Z,8.50
2022-12-27T11:27:56.358Z,8.50
2022-12-27T11:30:28.375Z,8.50
2022-12-27T11:32:58.712Z,8.50
2022-12-27T11:35:26.969Z,8.50
2022-12-27T11:37:55.282Z,8.50
2022-12-27T11:40:27.157Z,8.50
2022-12-27T11:43:04.841Z,8.50
2022-12-27T11:45:38.584Z,8.50
2022-12-27T11:48:20.056Z,8.50
2022-12-27T11:51:05.261Z,8.50
2022-12-27T11:54:00.246Z,8.50
2022-12-27T11:56:29.843Z,8.40
2022-12-27T11:59:32.457Z,8.40
2022-12-27T12:02:28.648Z,8.50
2022-12-27T12:05:34.095Z,8.40
2022-12-27T12:08:16.796Z,8.40
2022-12-27T12:10:53.134Z,8.40
2022-12-27T12:13:47.247Z,8.40
2022-12-27T12:16:43.948Z,8.50
2022-12-27T12:19:31.951Z,8.50
2022-12-27T12:22:13.281Z,8.50
2022-12-27T12:25:01.871Z,8.50
2022-12-27T12:27:52.936Z,8.40
2022-12-27T12:30:46.517Z,8.40
2022-12-27T12:33:33.274Z,8.40
2022-12-27T12:36:17.869Z,8.40
2022-12-27T12:38:53.795Z,8.40
2022-12-27T12:41:47.877Z,8.50
2022-12-27T12:44:49.206Z,8.50
2022-12-27T12:47:31.560Z,8.60
2022-12-27T12:50:17.870Z,8.70
2022-12-27T12:53:04.306Z,8.70
2022-12-27T12:55:46.567Z,8.70
2022-12-27T12:58:42.191Z,8.70
2022-12-27T13:01:27.597Z,8.70
2022-12-27T13:04:24.175Z,8.70
2022-12-27T13:07:23.091Z,8.60
2022-12-27T13:10:19.335Z,8.60
2022-12-27T13:12:54.413Z,8.60
2022-12-27T13:15:33.670Z,8.50
2022-12-27T13:18:12.287Z,8.50
2022-12-27T13:21:06.959Z,8.40
2022-12-27T13:23:51.685Z,8.40
2022-12-27T13:26:29.226Z,8.40
2022-12-27T13:29:10.137Z,8.30
2022-12-27T13:31:48.976Z,8.30
2022-12-27T13:34:30.750Z,8.30
2022-12-27T13:37:12.743Z,8.30
2022-12-27T13:39:58.305Z,8.30
2022-12-27T13:42:54.997Z,8.30
2022-12-27T13:45:47.332Z,8.30
2022-12-27T13:48:33.605Z,8.30
2022-12-27T13:51:10.234Z,8.40
2022-12-27T13:54:05.145Z,8.30
2022-12-27T13:56:53.853Z,8.30
2022-12-27T13:59:42.849Z,8.20
2022-12-27T14:02:34.874Z,8.20
2022-12-27T14:05:39.523Z,8.20
2022-12-27T14:08:21.345Z,8.20
2022-12-27T14:10:55.342Z,8.30
2022-12-27T14:13:35.879Z,8.30
2022-12-27T14:16:32.247Z,8.30
2022-12-27T14:19:16.928Z,8.30
2022-12-27T14:22:11.353Z,8.40
2022-12-27T14:25:17.948Z,8.40
2022-12-27T14:28:13.435Z,8.40
2022-12-27T14:31:04.940Z,8.40
2022-12-27T14:34:16.786Z,8.30
2022-12-27T14:37:25.421Z,8.30
2022-12-27T14:40:26.692Z,8.20
2022-12-27T14:43:37.519Z,8.20
2022-12-27T14:46:41.752Z,8.20
2022-12-27T14:49:53.795Z,8.20
2022-12-27T14:53:12.491Z,8.20
2022-12-27T14:55:48.980Z,8.20
2022-12-27T14:58:39.158Z,8.10
2022-12-27T15:01:13.541Z,8.10
2022-12-27T15:04:02.427Z,8.00
2022-12-27T15:06:53.742Z,7.90
2022-12-27T15:09:35.698Z,7.80
2022-12-27T15:12:14.384Z,7.80
2022-12-27T15:15:15.222Z,7.70
2022-12-27T15:18:01.018Z,7.60
2022-12-27T15:20:47.375Z,7.50
2022-12-27T15:23:25.398Z,7.50
2022-12-27T15:26:07.328Z,7.50
2022-12-27T15:28:50.993Z,7.40
2022-12-27T15:31:31.152Z,7.40
2022-12-27T15:34:14.170Z,7.40
2022-12-27T15:36:45.671Z,7.40
2022-12-27T15:39:49.039Z,7.40
2022-12-27T15:42:48.896Z,7.40
2022-12-27T15:45:33.884Z,7.30
2022-12-27T15:48:31.249Z,7.20
2022-12-27T15:51:07.964Z,7.20
2022-12-27T15:53:55.590Z,7.10
2022-12-27T15:56:45.204Z,7.10
2022-12-27T15:59:33.322Z,7.10
2022-12-27T16:02:36.035Z,7.10
2022-12-27T16:05:13.767Z,7.00
2022-12-27T16:07:47.872Z,7.00
2022-12-27T16:10:48.818Z,7.00
2022-12-27T16:13:42.221Z,7.00
2022-12-27T16:16:27.596Z,6.90
2022-12-27T16:19:12.958Z,6.90
2022-12-27T16:21:44.257Z,6.80
2022-12-27T16:24:17.669Z,6.80
2022-12-27T16:26:54.591Z,6.80
2022-12-27T16:29:27.473Z,6.80
2022-12-27T16:32:16.956Z,6.80
2022-12-27T16:34:47.416Z,6.80
2022-12-27T16:37:24.678Z,6.70
2022-12-27T16:40:09.213Z,6.70
2022-12-27T16:43:17.029Z,6.70
2022-12-27T16:45:52.410Z,6.70
2022-12-27T16:48:31.571Z,6.60
2022-12-27T16:51:15.013Z,6.60
2022-12-27T16:54:06.765Z,6.60
2022-12-27T16:56:38.501Z,6.60
2022-12-27T16:59:46.389Z,6.50
2022-12-27T17:05:37.611Z,6.60
2022-12-27T17:08:18.898Z,6.50
2022-12-27T17:11:03.192Z,6.40
2022-12-27T17:13:39.113Z,6.40
2022-12-27T17:16:19.879Z,6.40
2022-12-27T17:18:52.916Z,6.40
2022-12-27T17:21:30.385Z,6.40
2022-12-27T17:24:01.363Z,6.40
2022-12-27T17:26:47.482Z,6.40
2022-12-27T17:29:36.898Z,6.30
2022-12-27T17:32:16.474Z,6.30
2022-12-27T17:34:52.577Z,6.30
2022-12-27T17:37:32.275Z,6.30
2022-12-27T17:40:12.709Z,6.30
2022-12-27T17:43:18.052Z,6.30
2022-12-27T17:45:55.113Z,6.30
2022-12-27T17:48:29.220Z,6.20
2022-12-27T17:51:02.176Z,6.20
2022-12-27T17:53:49.380Z,6.20
2022-12-27T17:56:37.718Z,6.20
2022-12-27T17:59:09.710Z,6.20
2022-12-27T18:01:44.484Z,6.20
2022-12-27T18:04:21.438Z,6.20
2022-12-27T18:06:50.115Z,6.20
2022-12-27T18:09:33.984Z,6.20
2022-12-27T18:12:03.073Z,6.20
2022-12-27T18:14:34.471Z,6.10
2022-12-27T18:17:02.982Z,6.10
2022-12-27T18:19:32.602Z,6.10
2022-12-27T18:22:03.261Z,6.10
2022-12-27T18:24:34.276Z,6.10
2022-12-27T18:27:04.788Z,6.10
2022-12-27T18:29:33.595Z,6.10
2022-12-27T18:32:05.836Z,6.10
2022-12-27T18:34:37.912Z,6.00
2022-12-27T18:37:08.651Z,6.00
2022-12-27T18:39:41.471Z,6.00
2022-12-27T18:42:18.706Z,6.00
2022-12-27T18:44:50.275Z,6.00
2022-12-27T18:47:21.635Z,6.00
2022-12-27T18:49:55.011Z,6.00
2022-12-27T18:52:27.175Z,6.00
2022-12-27T18:54:56.781Z,6.00
2022-12-27T18:57:35.513Z,5.90
2022-12-27T19:00:15.991Z,6.00
2022-12-27T19:02:44.968Z,5.90
2022-12-27T19:05:31.313Z,5.90
2022-12-27T19:08:10.840Z,5.90
2022-12-27T19:10:48.770Z,5.90
2022-12-27T19:13:23.340Z,5.90
2022-12-27T19:15:52.182Z,5.90
2022-12-27T19:18:25.419Z,5.90
2022-12-27T19:20:58.073Z,5.90
2022-12-27T19:23:30.646Z,5.90
2022-12-27T19:26:04.677Z,5.90
2022-12-27T19:28:33.928Z,5.90
2022-12-27T19:31:17.692Z,5.90
2022-12-27T19:33:49.340Z,5.90
2022-12-27T19:36:18.125Z,5.90
2022-12-27T19:38:48.168Z,5.90
2022-12-27T19:41:18.030Z,5.90
2022-12-27T19:43:48.116Z,5.80
2022-12-27T19:46:19.222Z,5.80
2022-12-27T19:49:01.137Z,5.80
2022-12-27T19:51:37.376Z,5.80
2022-12-27T19:54:10.360Z,5.70
2022-12-27T19:56:40.107Z,5.70
2022-12-27T19:59:08.351Z,5.70
2022-12-27T20:01:36.688Z,5.70
2022-12-27T20:04:05.032Z,5.70
2022-12-27T20:06:33.298Z,5.70
2022-12-27T20:09:01.800Z,5.70
2022-12-27T20:11:30.076Z,5.80
2022-12-27T20:14:00.273Z,5.80
2022-12-27T20:16:28.659Z,5.90
2022-12-27T20:18:56.923Z,5.90
2022-12-27T20:21:25.644Z,5.90
2022-12-27T20:23:53.886Z,5.90
2022-12-27T20:26:24.473Z,5.90
2022-12-27T20:28:54.025Z,5.90
2022-12-27T20:31:23.831Z,5.90
2022-12-27T20:33:53.489Z,6.00
2022-12-27T20:36:22.413Z,6.00
2022-12-27T20:38:50.756Z,6.10
2022-12-27T20:41:20.927Z,6.10
2022-12-27T20:43:49.156Z,6.10
2022-12-27T20:46:18.994Z,6.20
2022-12-27T20:48:48.882Z,6.20
2022-12-27T20:51:18.989Z,6.20
2022-12-27T20:53:49.162Z,6.20
2022-12-27T20:56:17.865Z,6.30
2022-12-27T20:58:46.166Z,6.30
2022-12-27T21:01:16.167Z,6.40
2022-12-27T21:03:45.319Z,6.40
2022-12-27T21:06:16.714Z,6.40
2022-12-27T21:08:50.522Z,6.40
2022-12-27T21:11:26.829Z,6.50
2022-12-27T21:13:55.659Z,6.50
2022-12-27T21:16:26.821Z,6.50
2022-12-27T21:18:55.761Z,6.50
2022-12-27T21:21:28.933Z,6.50
2022-12-27T21:23:57.391Z,6.60
2022-12-27T21:26:27.667Z,6.60
2022-12-27T21:28:56.262Z,6.60
2022-12-27T21:31:24.577Z,6.60
2022-12-27T21:33:53.130Z,6.60
2022-12-27T21:36:23.185Z,6.60
2022-12-27T21:38:53.921Z,6.60
2022-12-27T21:41:23.606Z,6.60
2022-12-27T21:43:52.225Z,6.60
2022-12-27T21:46:22.575Z,6.60
2022-12-27T21:48:57.345Z,6.60
2022-12-27T21:51:26.007Z,6.70
2022-12-27T21:53:55.939Z,6.70
2022-12-27T21:56:25.531Z,6.70
2022-12-27T21:58:55.455Z,6.70
2022-12-27T22:01:25.367Z,6.70
2022-12-27T22:03:55.180Z,6.70
2022-12-27T22:06:25.568Z,6.70
2022-12-27T22:08:57.759Z,6.70
2022-12-27T22:11:26.785Z,6.80
2022-12-27T22:13:55.255Z,6.80
2022-12-27T22:16:25.165Z,6.80
2022-12-27T22:18:55.991Z,6.80
2022-12-27T22:21:26.072Z,6.80
2022-12-27T22:23:57.354Z,6.70
2022-12-27T22:26:27.557Z,6.70
2022-12-27T22:28:56.121Z,6.70
2022-12-27T22:31:27.477Z,6.60
2022-12-27T22:33:55.746Z,6.60
2022-12-27T22:36:26.146Z,6.50
2022-12-27T22:38:58.236Z,6.40
2022-12-27T22:41:28.889Z,6.40
2022-12-27T22:43:58.575Z,6.30
2022-12-27T22:46:27.742Z,6.20
2022-12-27T22:48:58.333Z,6.20
2022-12-27T22:51:29.533Z,6.20
2022-12-27T22:54:00.234Z,6.20
2022-12-27T22:56:29.917Z,6.20
2022-12-27T22:58:58.554Z,6.10
2022-12-27T23:01:28.913Z,6.10
2022-12-27T23:03:58.192Z,6.10
2022-12-27T23:06:27.503Z,6.10
2022-12-27T23:08:56.202Z,6.10
2022-12-27T23:11:28.734Z,6.10
2022-12-27T23:13:58.509Z,6.20
2022-12-27T23:16:27.106Z,6.20
2022-12-27T23:18:55.732Z,6.20
2022-12-27T23:21:24.723Z,6.10
2022-12-27T23:23:53.734Z,6.10
2022-12-27T23:26:25.258Z,6.10
2022-12-27T23:28:54.206Z,6.10
2022-12-27T23:31:24.198Z,6.10
2022-12-27T23:33:53.644Z,6.10
2022-12-27T23:36:22.749Z,6.10
2022-12-27T23:38:51.652Z,6.00
2022-12-27T23:41:21.747Z,6.00
2022-12-27T23:43:54.310Z,6.10
2022-12-27T23:46:25.250Z,6.10
2022-12-27T23:48:53.621Z,6.10
2022-12-27T23:51:22.668Z,6.10
2022-12-27T23:53:51.455Z,6.20
2022-12-27T23:56:21.498Z,6.30
2022-12-27T23:58:52.525Z,6.30
